KLRJ/LRJ METAR and TAF weather

Enter ICAO airport designator
Station Type Date Time Source
KLRJ METAR 2020/07/03 12:55 UTC NOAA

KLRJ 031255Z AUTO 11011G17KT 10SM CLR 28/26 A3002 RMK AO2


Station Type Date Time Source
KLRJ Decoded METAR 2020/07/03 12:55 UTC NOAA

Le Mars, Le Mars Municipal Airport, IA, United States (KLRJ) 42-46-41N 096-11-37W
Jul 03, 2020 - 08:55 AM EDT / 2020.07.03 1255 UTC
Wind: from the ESE (110 degrees) at 13 MPH (11 KT) gusting to 20 MPH (17 KT):0
Visibility: 10 mile(s):0
Sky conditions: clear
Temperature: 82 F (28 C)
Dew Point: 78 F (26 C)
Relative Humidity: 88%
Pressure (altimeter): 30.02 in. Hg (1016 hPa)
ob: KLRJ 031255Z AUTO 11011G17KT 10SM CLR 28/26 A3002 RMK AO2
cycle: 13

Station Type Date Time Source
KLRJ TAF UTC NOAA

Error!

Example: see airport list